Aviation Digital Data Service (ADDS)

Output produced by METARs form (1126 UTC 18 June 2019)
found at http://www.aviationweather.gov/metar/data/
 
Forecast for: EHGR (GILZE-RIJEN RNLA, NL)
Text: TAF EHGR 180814Z 1809/1821 VRB03KT CAVOK
Forecast period: 0900 to 1800 UTC 18 June 2019
Forecast type: FROM: standard forecast or significant change
Winds: variable direction winds at 3 MPH (3 knots; 1.5 m/s)
Visibility: 6 or more miles 10+ km)
Ceiling: unknown
Clouds: missing
Weather: NSW  (no significant weather)
Text: BECMG 1818/1821 09005KT
Forecast period: 1800 to 2100 UTC 18 June 2019
Forecast type: BECOMING: Conditions expected to become as follows by 2100 UTC 18 June 2019
Winds: from the E (90 degrees) at 6 MPH (5 knots; 2.6 m/s)
Visibility: 6 or more miles 10+ km)
Ceiling: unknown
Clouds: missing
Weather: NSW  (no significant weather)